createdAt,value
2018-04-28T00:01:44.707Z,12.32
2018-04-28T00:04:12.226Z,12.31
2018-04-28T00:06:39.738Z,12.31
2018-04-28T00:09:08.149Z,12.24
2018-04-28T00:11:35.649Z,12.06
2018-04-28T00:14:03.178Z,11.81
2018-04-28T00:16:30.663Z,11.60
2018-04-28T00:19:02.050Z,11.48
2018-04-28T00:21:38.986Z,11.41
2018-04-28T00:24:09.929Z,11.35
2018-04-28T00:26:38.178Z,11.37
2018-04-28T00:29:06.493Z,11.39
2018-04-28T00:31:51.142Z,11.45
2018-04-28T00:34:18.679Z,11.46
2018-04-28T00:40:08.510Z,11.33
2018-04-28T00:42:39.918Z,11.32
2018-04-28T00:48:25.962Z,11.15
2018-04-28T00:51:02.455Z,11.07
2018-04-28T00:53:29.945Z,10.99
2018-04-28T00:55:57.463Z,10.99
2018-04-28T00:58:40.641Z,11.08
2018-04-28T01:01:26.937Z,11.23
2018-04-28T01:03:54.433Z,11.28
2018-04-28T01:06:21.945Z,11.24
2018-04-28T01:08:49.432Z,11.11
2018-04-28T01:11:16.955Z,11.01
2018-04-28T01:13:45.278Z,10.94
2018-04-28T01:16:13.683Z,10.87
2018-04-28T01:18:54.024Z,10.79
2018-04-28T01:21:23.208Z,10.74
2018-04-28T01:23:54.221Z,10.69
2018-04-28T01:29:32.658Z,10.62
2018-04-28T01:32:09.557Z,10.64
2018-04-28T01:34:41.789Z,10.61
2018-04-28T01:40:12.982Z,10.64
2018-04-28T01:42:44.148Z,10.65
2018-04-28T01:45:23.609Z,10.67
2018-04-28T01:50:58.573Z,10.64
2018-04-28T01:53:31.882Z,10.64
2018-04-28T01:56:03.825Z,10.57
2018-04-28T01:58:33.053Z,10.51
2018-04-28T02:01:02.486Z,10.45
2018-04-28T02:03:41.829Z,10.40
2018-04-28T02:06:18.043Z,10.34
2018-04-28T02:08:49.074Z,10.33
2018-04-28T02:11:30.209Z,10.35
2018-04-28T02:14:00.314Z,10.39
2018-04-28T02:16:31.694Z,10.42
2018-04-28T02:19:12.425Z,10.41
2018-04-28T02:24:55.686Z,10.39
2018-04-28T02:27:23.230Z,10.45
2018-04-28T02:30:05.612Z,10.46
2018-04-28T02:32:36.007Z,10.40
2018-04-28T02:35:22.056Z,10.34
2018-04-28T02:41:01.058Z,10.38
2018-04-28T02:43:53.179Z,10.44
2018-04-28T02:49:29.032Z,10.43
2018-04-28T02:52:01.479Z,10.43
2018-04-28T02:54:32.982Z,10.44
2018-04-28T02:59:57.398Z,10.45
2018-04-28T03:02:28.823Z,10.46
2018-04-28T03:04:59.034Z,10.46
2018-04-28T03:07:38.146Z,10.44
2018-04-28T03:10:09.387Z,10.41
2018-04-28T03:12:36.901Z,10.38
2018-04-28T03:15:04.397Z,10.35
2018-04-28T03:17:34.373Z,10.32
2018-04-28T03:20:19.293Z,10.25
2018-04-28T03:22:50.612Z,10.13
2018-04-28T03:25:21.598Z,10.02
2018-04-28T03:31:02.591Z,9.64
2018-04-28T03:33:32.969Z,9.72
2018-04-28T03:39:27.221Z,9.74
2018-04-28T03:44:51.482Z,9.78
2018-04-28T03:50:22.482Z,9.83
2018-04-28T03:52:52.706Z,9.90
2018-04-28T03:55:23.873Z,9.97
2018-04-28T03:58:03.301Z,9.97
2018-04-28T04:00:42.595Z,9.94
2018-04-28T04:03:19.891Z,9.99
2018-04-28T04:06:06.197Z,9.91
2018-04-28T04:11:54.833Z,10.25
2018-04-28T04:17:54.658Z,10.76
2018-04-28T04:20:32.055Z,11.11
2018-04-28T04:23:05.424Z,11.17
2018-04-28T04:25:41.413Z,11.17
2018-04-28T04:28:18.618Z,11.57
2018-04-28T04:33:49.614Z,11.69
2018-04-28T04:39:37.478Z,11.96
2018-04-28T04:42:11.769Z,11.97
2018-04-28T04:44:46.953Z,12.27
2018-04-28T04:47:20.377Z,12.58
2018-04-28T04:52:57.229Z,12.49
2018-04-28T04:55:32.458Z,12.55
2018-04-28T05:01:16.982Z,12.75
2018-04-28T05:03:53.157Z,12.93
2018-04-28T05:06:36.454Z,13.03
2018-04-28T05:09:15.834Z,13.45
2018-04-28T05:15:03.682Z,14.58
2018-04-28T05:17:33.065Z,14.44
2018-04-28T05:20:07.287Z,14.32
2018-04-28T05:25:47.042Z,14.56
2018-04-28T05:28:28.455Z,15.06
2018-04-28T05:34:04.801Z,15.03
2018-04-28T05:39:49.560Z,15.51
2018-04-28T05:48:37.877Z,16.06
2018-04-28T05:51:31.236Z,16.29
2018-04-28T05:54:10.576Z,16.88
2018-04-28T05:56:49.929Z,20.18
2018-04-28T05:59:39.166Z,19.29
2018-04-28T06:05:14.898Z,19.84
2018-04-28T06:14:08.177Z,20.63
2018-04-28T06:16:45.145Z,21.32
2018-04-28T06:19:19.598Z,22.41
2018-04-28T06:21:47.114Z,24.21
2018-04-28T06:24:14.622Z,22.73
2018-04-28T06:26:42.139Z,22.95
2018-04-28T06:29:09.645Z,24.71
2018-04-28T06:31:37.165Z,26.20
2018-04-28T06:34:04.648Z,26.53
2018-04-28T06:36:32.153Z,26.62
2018-04-28T06:38:59.674Z,26.72
2018-04-28T06:41:27.238Z,26.77
2018-04-28T06:43:54.730Z,26.95
2018-04-28T06:46:22.305Z,26.99
2018-04-28T06:48:49.798Z,27.09
2018-04-28T06:51:17.310Z,27.10
2018-04-28T06:53:44.810Z,27.47
2018-04-28T06:56:12.334Z,27.62
2018-04-28T06:58:39.847Z,28.89
2018-04-28T07:01:07.371Z,29.16
2018-04-28T07:03:34.876Z,29.43
2018-04-28T07:06:02.402Z,30.10
2018-04-28T07:08:29.941Z,30.83
2018-04-28T07:10:57.434Z,32.43
2018-04-28T07:13:24.944Z,31.60
2018-04-28T07:15:52.801Z,31.57
2018-04-28T07:18:20.330Z,31.94
2018-04-28T07:20:47.830Z,32.77
2018-04-28T07:23:15.354Z,32.05
2018-04-28T07:25:42.850Z,32.12
2018-04-28T07:28:10.376Z,32.05
2018-04-28T07:30:37.920Z,31.93
2018-04-28T07:33:05.437Z,32.32
2018-04-28T07:35:32.943Z,31.18
2018-04-28T07:38:00.775Z,31.53
2018-04-28T07:40:28.305Z,29.60
2018-04-28T07:42:56.457Z,28.43
2018-04-28T07:45:23.980Z,29.20
2018-04-28T07:47:51.560Z,29.99
2018-04-28T07:50:19.146Z,29.83
2018-04-28T07:52:46.652Z,28.67
2018-04-28T07:55:14.145Z,29.01
2018-04-28T07:57:41.659Z,30.40
2018-04-28T08:00:09.149Z,29.94
2018-04-28T08:02:36.660Z,31.34
2018-04-28T08:05:04.166Z,31.76
2018-04-28T08:07:32.579Z,32.46
2018-04-28T08:10:00.085Z,32.45
2018-04-28T08:12:27.586Z,32.86
2018-04-28T08:14:55.093Z,33.02
2018-04-28T08:17:22.646Z,31.88
2018-04-28T08:19:50.166Z,30.04
2018-04-28T08:22:17.657Z,28.72
2018-04-28T08:24:45.185Z,27.56
2018-04-28T08:27:12.775Z,28.42
2018-04-28T08:29:40.295Z,29.68
2018-04-28T08:32:08.741Z,29.29
2018-04-28T08:34:36.375Z,31.08
2018-04-28T08:37:03.877Z,32.28
2018-04-28T08:39:31.774Z,32.83
2018-04-28T08:41:59.293Z,32.65
2018-04-28T08:44:27.298Z,33.26
2018-04-28T08:46:54.863Z,32.69
2018-04-28T08:49:22.378Z,33.60
2018-04-28T08:51:49.871Z,34.01
2018-04-28T08:54:17.385Z,34.03
2018-04-28T08:56:44.961Z,33.68
2018-04-28T09:01:48.704Z,29.10
2018-04-28T09:04:16.416Z,30.56
2018-04-28T09:06:45.784Z,32.05
2018-04-28T09:09:13.317Z,32.96
2018-04-28T09:11:40.842Z,33.41
2018-04-28T09:14:08.327Z,32.68
2018-04-28T09:16:35.840Z,32.20
2018-04-28T09:19:03.339Z,32.82
2018-04-28T09:21:30.854Z,33.48
2018-04-28T09:23:58.344Z,33.62
2018-04-28T09:26:25.945Z,28.91
2018-04-28T09:28:53.369Z,29.71
2018-04-28T09:31:20.877Z,31.02
2018-04-28T09:33:48.374Z,28.30
2018-04-28T09:36:15.876Z,29.48
2018-04-28T09:38:43.361Z,31.12
2018-04-28T09:41:10.868Z,32.42
2018-04-28T09:43:38.358Z,32.59
2018-04-28T09:46:05.868Z,33.04
2018-04-28T09:48:33.359Z,33.40
2018-04-28T09:51:00.870Z,33.19
2018-04-28T09:53:28.358Z,32.47
2018-04-28T09:55:55.870Z,31.40
2018-04-28T09:58:23.363Z,29.47
2018-04-28T10:00:50.880Z,31.37
2018-04-28T10:03:22.119Z,32.49
2018-04-28T10:05:49.671Z,32.58
2018-04-28T10:08:17.147Z,33.43
2018-04-28T10:10:44.633Z,33.61
2018-04-28T10:13:12.132Z,32.99
2018-04-28T10:15:39.619Z,33.24
2018-04-28T10:18:07.146Z,32.89
2018-04-28T10:20:34.650Z,32.67
2018-04-28T10:23:02.171Z,32.73
2018-04-28T10:25:29.671Z,32.93
2018-04-28T10:27:57.694Z,31.84
2018-04-28T10:30:25.182Z,32.78
2018-04-28T10:32:52.730Z,33.45
2018-04-28T10:35:20.229Z,35.11
2018-04-28T10:37:47.738Z,35.15
2018-04-28T10:40:15.225Z,35.42
2018-04-28T10:42:42.746Z,34.82
2018-04-28T10:45:10.233Z,35.33
2018-04-28T10:47:37.812Z,35.54
2018-04-28T10:50:05.256Z,36.30
2018-04-28T10:52:32.765Z,36.43
2018-04-28T10:55:00.305Z,35.74
2018-04-28T10:57:27.825Z,34.36
2018-04-28T10:59:55.316Z,34.62
2018-04-28T11:02:22.813Z,34.74
2018-04-28T11:04:50.334Z,35.13
2018-04-28T11:07:17.826Z,34.83
2018-04-28T11:09:45.363Z,33.56
2018-04-28T11:12:12.873Z,32.63
2018-04-28T11:14:40.413Z,31.48
2018-04-28T11:17:07.914Z,31.82
2018-04-28T11:19:35.487Z,28.75
2018-04-28T11:22:02.986Z,27.23
2018-04-28T11:24:30.506Z,27.52
2018-04-28T11:26:57.997Z,28.09
2018-04-28T11:29:25.518Z,27.20
2018-04-28T11:31:53.001Z,26.90
2018-04-28T11:34:20.533Z,26.12
2018-04-28T11:36:48.031Z,25.67
2018-04-28T11:39:15.544Z,26.49
2018-04-28T11:41:43.029Z,26.17
2018-04-28T11:44:10.540Z,25.70
2018-04-28T11:46:38.902Z,26.73
2018-04-28T11:49:06.417Z,25.82
2018-04-28T11:51:33.961Z,25.17
2018-04-28T11:54:01.488Z,25.34
2018-04-28T11:56:28.992Z,25.84
2018-04-28T11:58:56.493Z,25.09
2018-04-28T12:01:26.056Z,25.82
2018-04-28T12:03:53.621Z,25.69
2018-04-28T12:06:21.986Z,25.42
2018-04-28T12:08:49.469Z,25.44
2018-04-28T12:11:18.747Z,25.47
2018-04-28T12:13:46.239Z,24.07
2018-04-28T12:16:13.753Z,23.24
2018-04-28T12:18:42.091Z,22.98
2018-04-28T12:21:12.074Z,23.33
2018-04-28T12:23:45.571Z,23.20
2018-04-28T12:26:17.712Z,23.52
2018-04-28T12:28:50.470Z,23.85
2018-04-28T12:31:17.983Z,23.47
2018-04-28T12:33:45.471Z,23.23
2018-04-28T12:36:12.985Z,23.43
2018-04-28T12:38:40.474Z,23.73
2018-04-28T12:41:07.982Z,23.92
2018-04-28T12:43:35.479Z,23.16
2018-04-28T12:46:02.990Z,23.31
2018-04-28T12:48:30.491Z,23.41
2018-04-28T12:50:58.979Z,23.30
2018-04-28T12:53:26.468Z,23.00
2018-04-28T12:55:53.978Z,23.29
2018-04-28T12:58:21.474Z,23.61
2018-04-28T13:00:48.991Z,24.08
2018-04-28T13:03:16.489Z,24.26
2018-04-28T13:05:43.990Z,23.80
2018-04-28T13:08:11.530Z,23.76
2018-04-28T13:10:39.029Z,23.48
2018-04-28T13:13:06.537Z,23.30
2018-04-28T13:15:34.035Z,23.77
2018-04-28T13:18:01.600Z,24.08
2018-04-28T13:20:29.166Z,23.87
2018-04-28T13:22:56.677Z,23.78
2018-04-28T13:25:24.165Z,23.92
2018-04-28T13:27:51.674Z,24.22
2018-04-28T13:30:19.165Z,23.75
2018-04-28T13:32:46.673Z,23.39
2018-04-28T13:35:14.165Z,23.60
2018-04-28T13:37:41.706Z,23.74
2018-04-28T13:40:09.197Z,23.44
2018-04-28T13:42:36.722Z,23.41
2018-04-28T13:45:04.214Z,23.72
2018-04-28T13:47:31.726Z,23.27
2018-04-28T13:49:59.223Z,23.28
2018-04-28T13:52:26.746Z,23.47
2018-04-28T13:54:54.233Z,23.53
2018-04-28T13:57:21.764Z,23.64
2018-04-28T13:59:49.282Z,23.56
2018-04-28T14:02:16.793Z,23.71
2018-04-28T14:04:44.310Z,24.32
2018-04-28T14:07:11.806Z,23.80
2018-04-28T14:09:40.296Z,23.66
2018-04-28T14:12:07.793Z,24.08
2018-04-28T14:14:35.310Z,24.59
2018-04-28T14:17:02.803Z,24.65
2018-04-28T14:19:30.330Z,24.32
2018-04-28T14:21:57.828Z,24.31
2018-04-28T14:24:25.345Z,24.32
2018-04-28T14:26:52.884Z,24.43
2018-04-28T14:29:20.373Z,24.59
2018-04-28T14:31:47.858Z,24.80
2018-04-28T14:34:15.370Z,24.37
2018-04-28T14:36:42.858Z,24.08
2018-04-28T14:39:10.378Z,23.90
2018-04-28T14:41:37.870Z,24.21
2018-04-28T14:44:05.378Z,24.46
2018-04-28T14:46:32.876Z,24.62
2018-04-28T14:49:00.402Z,24.75
2018-04-28T14:51:27.905Z,24.33
2018-04-28T14:53:55.393Z,24.39
2018-04-28T14:56:22.906Z,24.45
2018-04-28T14:58:50.406Z,24.65
2018-04-28T15:01:18.016Z,24.93
2018-04-28T15:03:45.473Z,24.73
2018-04-28T15:06:12.981Z,24.73
2018-04-28T15:08:41.266Z,24.89
2018-04-28T15:11:08.798Z,24.96
2018-04-28T15:13:36.300Z,24.88
2018-04-28T15:16:03.808Z,24.79
2018-04-28T15:18:31.293Z,24.76
2018-04-28T15:20:58.810Z,24.56
2018-04-28T15:23:26.344Z,24.55
2018-04-28T15:25:53.862Z,24.43
2018-04-28T15:28:21.367Z,24.38
2018-04-28T15:30:49.094Z,24.39
2018-04-28T15:33:16.583Z,24.49
2018-04-28T15:35:44.082Z,24.57
2018-04-28T15:38:11.569Z,24.42
2018-04-28T15:40:39.074Z,24.30
2018-04-28T15:43:06.574Z,24.24
2018-04-28T15:45:34.087Z,24.27
2018-04-28T15:48:01.583Z,24.00
2018-04-28T15:50:29.068Z,23.99
2018-04-28T15:52:56.583Z,24.06
2018-04-28T15:55:24.094Z,24.03
2018-04-28T15:57:51.616Z,23.99
2018-04-28T16:00:19.105Z,23.88
2018-04-28T16:02:46.722Z,23.82
2018-04-28T16:05:14.177Z,23.75
2018-04-28T16:07:42.786Z,23.51
2018-04-28T16:10:10.273Z,23.48
2018-04-28T16:12:38.423Z,22.50
2018-04-28T16:15:06.088Z,23.26
2018-04-28T16:17:33.445Z,23.23
2018-04-28T16:20:00.937Z,23.26
2018-04-28T16:22:28.884Z,23.30
2018-04-28T16:24:56.813Z,23.21
2018-04-28T16:27:24.718Z,23.21
2018-04-28T16:29:52.208Z,23.10
2018-04-28T16:32:19.724Z,23.02
2018-04-28T16:34:47.213Z,23.06
2018-04-28T16:37:14.742Z,23.00
2018-04-28T16:39:42.230Z,22.97
2018-04-28T16:42:09.749Z,22.94
2018-04-28T16:44:37.241Z,22.91
2018-04-28T16:47:04.739Z,22.90
2018-04-28T16:49:32.248Z,22.86
2018-04-28T16:51:59.886Z,22.87
2018-04-28T16:54:27.412Z,22.85
2018-04-28T16:56:54.905Z,22.82
2018-04-28T16:59:22.431Z,22.79
2018-04-28T17:01:49.918Z,22.79
2018-04-28T17:04:17.425Z,22.75
2018-04-28T17:06:44.949Z,22.72
2018-04-28T17:09:12.470Z,22.75
2018-04-28T17:11:39.966Z,22.71
2018-04-28T17:14:07.478Z,22.66
2018-04-28T17:16:34.965Z,22.57
2018-04-28T17:19:02.474Z,22.58
2018-04-28T17:21:29.976Z,22.54
2018-04-28T17:23:57.494Z,22.47
2018-04-28T17:26:24.990Z,22.43
2018-04-28T17:28:52.506Z,22.36
2018-04-28T17:31:20.000Z,22.28
2018-04-28T17:33:47.516Z,22.23
2018-04-28T17:36:15.011Z,22.16
2018-04-28T17:38:42.533Z,22.10
2018-04-28T17:41:10.024Z,22.04
2018-04-28T17:43:37.505Z,21.90
2018-04-28T17:46:05.014Z,21.75
2018-04-28T17:48:32.521Z,21.65
2018-04-28T17:51:00.092Z,21.54
2018-04-28T17:53:27.584Z,21.46
2018-04-28T17:55:55.096Z,21.34
2018-04-28T17:58:22.581Z,21.17
2018-04-28T18:00:50.174Z,21.11
2018-04-28T18:03:17.664Z,21.05
2018-04-28T18:05:45.185Z,20.89
2018-04-28T18:08:12.677Z,20.72
2018-04-28T18:10:40.189Z,20.58
2018-04-28T18:13:07.697Z,20.51
2018-04-28T18:15:35.223Z,20.41
2018-04-28T18:18:02.729Z,20.32
2018-04-28T18:20:30.252Z,20.19
2018-04-28T18:22:57.741Z,20.07
2018-04-28T18:25:25.261Z,19.98
2018-04-28T18:27:52.748Z,19.87
2018-04-28T18:30:20.308Z,19.79
2018-04-28T18:32:47.806Z,19.72
2018-04-28T18:35:15.300Z,19.71
2018-04-28T18:37:42.818Z,19.65
2018-04-28T18:40:10.358Z,19.57
2018-04-28T18:42:37.916Z,19.49
2018-04-28T18:45:05.401Z,19.36
2018-04-28T18:47:33.068Z,19.24
2018-04-28T18:50:00.569Z,19.17
2018-04-28T18:52:28.138Z,19.11
2018-04-28T18:54:55.645Z,19.01
2018-04-28T18:57:23.184Z,18.89
2018-04-28T18:59:50.753Z,18.79
2018-04-28T19:02:18.405Z,18.79
2018-04-28T19:04:45.888Z,18.70
2018-04-28T19:07:13.409Z,18.75
2018-04-28T19:09:40.962Z,18.70
2018-04-28T19:12:08.470Z,18.67
2018-04-28T19:14:35.958Z,18.62
2018-04-28T19:17:03.467Z,18.58
2018-04-28T19:19:31.011Z,18.43
2018-04-28T19:21:58.481Z,18.37
2018-04-28T19:24:25.976Z,18.36
2018-04-28T19:26:53.483Z,18.35
2018-04-28T19:29:21.686Z,18.38
2018-04-28T19:31:49.165Z,18.30
2018-04-28T19:34:16.669Z,18.21
2018-04-28T19:36:44.162Z,18.17
2018-04-28T19:39:11.666Z,18.13
2018-04-28T19:41:39.150Z,18.05
2018-04-28T19:44:06.665Z,18.04
2018-04-28T19:46:34.160Z,17.95
2018-04-28T19:49:01.684Z,17.84
2018-04-28T19:51:29.195Z,17.77
2018-04-28T19:53:56.709Z,17.71
2018-04-28T19:56:24.258Z,17.67
2018-04-28T19:58:51.834Z,17.61
2018-04-28T20:01:19.322Z,17.54
2018-04-28T20:03:47.817Z,17.52
2018-04-28T20:06:15.303Z,17.45
2018-04-28T20:08:42.812Z,17.46
2018-04-28T20:11:10.596Z,17.40
2018-04-28T20:13:38.255Z,17.26
2018-04-28T20:16:05.974Z,17.33
2018-04-28T20:18:33.545Z,17.29
2018-04-28T20:21:01.042Z,17.23
2018-04-28T20:23:40.513Z,17.17
2018-04-28T20:26:08.015Z,17.13
2018-04-28T20:28:35.496Z,17.10
2018-04-28T20:31:03.027Z,17.07
2018-04-28T20:33:30.529Z,17.05
2018-04-28T20:35:58.058Z,17.02
2018-04-28T20:38:25.551Z,17.00
2018-04-28T20:40:53.060Z,16.98
2018-04-28T20:43:20.613Z,16.95
2018-04-28T20:45:48.130Z,16.87
2018-04-28T20:48:15.617Z,16.84
2018-04-28T20:50:44.047Z,16.87
2018-04-28T20:53:11.535Z,16.86
2018-04-28T20:55:39.042Z,16.83
2018-04-28T20:58:06.535Z,16.79
2018-04-28T21:00:34.053Z,16.77
2018-04-28T21:03:01.547Z,16.73
2018-04-28T21:05:29.057Z,16.72
2018-04-28T21:07:56.545Z,16.67
2018-04-28T21:10:24.057Z,16.63
2018-04-28T21:12:51.561Z,16.53
2018-04-28T21:15:19.065Z,16.43
2018-04-28T21:17:46.545Z,16.46
2018-04-28T21:20:14.052Z,16.44
2018-04-28T21:22:41.543Z,16.35
2018-04-28T21:25:09.042Z,16.25
2018-04-28T21:27:36.553Z,16.16
2018-04-28T21:30:04.057Z,16.05
2018-04-28T21:32:31.568Z,15.96
2018-04-28T21:34:59.049Z,15.86
2018-04-28T21:37:26.558Z,15.78
2018-04-28T21:39:54.046Z,15.71
2018-04-28T21:42:21.569Z,15.60
2018-04-28T21:44:49.053Z,15.51
2018-04-28T21:47:16.573Z,15.41
2018-04-28T21:49:44.077Z,15.32
2018-04-28T21:52:11.598Z,15.24
2018-04-28T21:54:39.087Z,15.18
2018-04-28T21:57:06.611Z,15.10
2018-04-28T21:59:34.113Z,15.06
2018-04-28T22:02:01.635Z,15.03
2018-04-28T22:04:29.126Z,15.04
2018-04-28T22:06:56.658Z,15.03
2018-04-28T22:09:24.155Z,14.99
2018-04-28T22:11:51.670Z,14.92
2018-04-28T22:14:19.153Z,14.84
2018-04-28T22:16:46.684Z,14.81
2018-04-28T22:19:14.169Z,14.76
2018-04-28T22:21:41.672Z,14.74
2018-04-28T22:24:09.176Z,14.65
2018-04-28T22:26:36.681Z,14.56
2018-04-28T22:29:04.198Z,14.47
2018-04-28T22:31:31.683Z,14.46
2018-04-28T22:33:59.193Z,14.40
2018-04-28T22:36:26.706Z,14.32
2018-04-28T22:38:54.219Z,14.29
2018-04-28T22:41:21.701Z,14.23
2018-04-28T22:43:49.218Z,14.17
2018-04-28T22:46:16.706Z,14.14
2018-04-28T22:48:44.253Z,14.09
2018-04-28T22:51:11.741Z,14.04
2018-04-28T22:53:39.250Z,13.99
2018-04-28T22:56:06.751Z,13.96
2018-04-28T22:58:34.902Z,13.94
2018-04-28T23:01:02.405Z,13.93
2018-04-28T23:03:29.915Z,13.92
2018-04-28T23:05:57.405Z,13.88
2018-04-28T23:08:24.923Z,13.85
2018-04-28T23:10:52.410Z,13.81
2018-04-28T23:13:19.897Z,13.77
2018-04-28T23:15:47.402Z,13.73
2018-04-28T23:18:14.907Z,13.71
2018-04-28T23:20:42.441Z,13.67
2018-04-28T23:23:09.934Z,13.63
2018-04-28T23:25:37.445Z,13.60
2018-04-28T23:28:04.929Z,13.58
2018-04-28T23:30:32.450Z,13.58
2018-04-28T23:32:59.952Z,13.57
2018-04-28T23:35:27.465Z,13.60
2018-04-28T23:37:54.958Z,13.62
2018-04-28T23:40:22.466Z,13.58
2018-04-28T23:42:49.958Z,13.57
2018-04-28T23:45:17.465Z,13.57
2018-04-28T23:47:44.958Z,13.61
2018-04-28T23:50:12.464Z,13.63
2018-04-28T23:52:39.958Z,13.62
2018-04-28T23:55:07.469Z,13.58
2018-04-28T23:57:34.949Z,13.54
